CheckWX is a tool to help pilots better visualize weather data.  It is not intended as a substitute for an official pre-flight weather briefing.

04:20:29 UTC

ESUP METAR
Pajala Airport
Sweden
Current

60 mins ago

ESUP 270320Z 27006KT 9999 BKN015 09/06 Q1008
Observed
Jun-27 @ 03:20 UTC
Wind
  • 270° at 6 KTS
Visibility
10,000+ meters
Flight Rules
MVFR
Cloud Levels
  • Broken at 1,500' AGL
Temperature
C / 48°F
Dewpoint
C / 43°F
Humidity
82%
Altimeter
29.76" Hg
Pressure
1007.92 hPa
Previous

12 hours ago

ESUP 261620Z 29009KT 9999 ////// 18/02 Q1010
Observed
Jun-26 @ 16:20 UTC
Wind
  • 290° at 9 KTS
Visibility
10,000+ meters
Temperature
18°C / 64°F
Dewpoint
C / 36°F
Humidity
34%
Altimeter
29.82" Hg
Pressure
1009.92 hPa
Previous

13 hours ago

ESUP 261550Z 28007KT 9999 ////// 18/02 Q1010
Observed
Jun-26 @ 15:50 UTC
Wind
  • 280° at 7 KTS
Visibility
10,000+ meters
Temperature
18°C / 64°F
Dewpoint
C / 36°F
Humidity
34%
Altimeter
29.82" Hg
Pressure
1009.92 hPa